Avalon Express — WDD7919 — position and weather

sailwx.info

Track history (hours):
 
Tides and Currents Weather Stations Pressure Air Temp Water Temp Dewpoint Dewpoint Depression Visibility Wind Speed Wind Dir Waves Ship Positions

Avalon Express

Owner: RGWT INC, San Pedro, CA. More information available from US FCC via Universal Licensing System and Coast Guard Vessel Documentation Center.

Last reported at 2017-Oct-17 19:30 UTC. Time now 2017-Oct-18 11:46 UTC.
Position N 33°45' W 118°16'.

Type: High speed craft. MMSI: 367192940.

Date/timePositionNaut miles runAvg speedWind from/ knotsBaromVisibWave heightAir tempDewpointWater temp
2017-Oct-17 19:30N 33°45' W 118°16'5 9.8
2017-Oct-17 19:00N 33°40' W 118°17'1611.1
2017-Oct-17 17:35N 33°26' W 118°25'226.5
2017-Oct-17 17:30N 33°25' W 118°23'510.1
2017-Oct-17 17:00N 33°21' W 118°19'1021.2
2017-Oct-17 16:31N 33°31' W 118°17'1224.5
2017-Oct-17 16:00N 33°43' W 118°16'0 0.0
2017-Oct-17 01:31N 33°44' W 118°16'0 6.9
2017-Oct-17 01:30N 33°44' W 118°16'1222.9
2017-Oct-17 01:00N 33°32' W 118°17'9 6.9
2017-Oct-16 23:42N 33°24' W 118°21'525.0
2017-Oct-16 23:30N 33°26' W 118°26'3 5.4
2017-Oct-16 22:58N 33°27' W 118°29'1226.2
2017-Oct-16 22:30N 33°36' W 118°20'916.9
2017-Oct-16 21:59N 33°44' W 118°17'0 1.0
2017-Oct-16 21:29N 33°45' W 118°16'0 0.0
2017-Oct-16 21:00N 33°45' W 118°16'0 0.0
2017-Oct-16 20:30N 33°45' W 118°16'0 0.0
2017-Oct-16 20:00N 33°45' W 118°16'0 0.2
2017-Oct-16 19:30N 33°45' W 118°16'612.3
2017-Oct-16 19:00N 33°39' W 118°18'1326.3
2017-Oct-16 18:31N 33°30' W 118°29'2 4.4
2017-Oct-16 18:00N 33°28' W 118°31'1326.2
2017-Oct-16 17:30N 33°38' W 118°20'714.0
2017-Oct-16 17:00N 33°44' W 118°17'1 1.6
2017-Oct-16 16:29N 33°45' W 118°16'0 0.0
2017-Oct-16 15:59N 33°45' W 118°16'0 0.0
2017-Oct-16 15:29N 33°45' W 118°16'0 0.0
2017-Oct-16 03:19N 33°45' W 118°16'0 0.0
2017-Oct-16 03:00N 33°45' W 118°16'0 0.0
2017-Oct-16 02:27N 33°45' W 118°16'0 0.0
2017-Oct-16 01:54N 33°45' W 118°16'2 4.0
2017-Oct-16 01:30N 33°43' W 118°16'1223.9
2017-Oct-16 00:59N 33°31' W 118°17'9 6.1
2017-Oct-15 23:32N 33°22' W 118°19'126.5
2017-Oct-15 23:30N 33°23' W 118°19'1427.0
2017-Oct-15 23:00N 33°36' W 118°16'916.6
2017-Oct-15 22:29N 33°45' W 118°16'0 0.1
2017-Oct-15 21:59N 33°45' W 118°16'0 0.0
2017-Oct-15 21:30N 33°45' W 118°16'0 0.0
2017-Oct-15 20:59N 33°45' W 118°16'2 3.8
2017-Oct-15 20:30N 33°43' W 118°16'2013.9
2017-Oct-15 19:02N 33°23' W 118°20'122.9
2017-Oct-15 19:00N 33°24' W 118°21'1011.7
2017-Oct-15 18:11N 33°28' W 118°31'1 3.6
2017-Oct-15 18:00N 33°28' W 118°31'1326.0
2017-Oct-15 17:31N 33°37' W 118°20'815.1
2017-Oct-15 17:00N 33°45' W 118°17'0 0.7
2017-Oct-15 16:29N 33°45' W 118°16'0 0.0
2017-Oct-15 15:56N 33°45' W 118°16'0 0.0
2017-Oct-15 15:16N 33°45' W 118°16'0 0.0
2017-Oct-15 14:52N 33°45' W 118°16'0 0.0
2017-Oct-15 13:57N 33°45' W 118°16'0 0.0
2017-Oct-15 13:30N 33°45' W 118°16'0 0.0
2017-Oct-15 13:00N 33°45' W 118°16'0 0.0
2017-Oct-15 03:07N 33°45' W 118°16'0 0.0
2017-Oct-15 03:00N 33°45' W 118°16'0 0.0
2017-Oct-15 02:30N 33°45' W 118°16'0 0.0
2017-Oct-15 02:00N 33°45' W 118°16'1 3.0
2017-Oct-15 01:30N 33°43' W 118°16'1223.3
2017-Oct-15 01:01N 33°32' W 118°17'1122.8
2017-Oct-15 00:30N 33°21' W 118°19'0 0.0
2017-Oct-15 00:00N 33°21' W 118°19'3 6.4
2017-Oct-14 23:30N 33°24' W 118°18'1326.9
2017-Oct-14 23:00N 33°37' W 118°16'815.8
2017-Oct-14 22:30N 33°45' W 118°16'0 0.0
2017-Oct-14 22:00N 33°45' W 118°16'0 0.0
2017-Oct-14 21:30N 33°45' W 118°16'0 0.0
2017-Oct-14 21:00N 33°45' W 118°16'2 4.1
2017-Oct-14 20:31N 33°43' W 118°16'1325.7
2017-Oct-14 20:00N 33°30' W 118°17'1019.3
2017-Oct-14 19:30N 33°21' W 118°19'0 0.0
2017-Oct-14 19:00N 33°21' W 118°19'1021.1
2017-Oct-14 18:31N 33°31' W 118°17'1223.7
2017-Oct-14 17:59N 33°43' W 118°16'2 3.3
2017-Oct-14 17:30N 33°45' W 118°16'0 0.0
2017-Oct-14 17:00N 33°45' W 118°16'0 0.2
2017-Oct-14 16:30N 33°45' W 118°16'0 0.1
2017-Oct-14 16:00N 33°45' W 118°16'0 0.1
2017-Oct-14 15:30N 33°45' W 118°16'0 0.0
2017-Oct-14 15:00N 33°45' W 118°16'0 0.0
2017-Oct-14 14:30N 33°45' W 118°16'0 0.0
2017-Oct-14 14:00N 33°45' W 118°16'0 0.0
2017-Oct-14 13:28N 33°45' W 118°16'0 0.0
2017-Oct-14 07:27N 33°45' W 118°16'0 0.2
2017-Oct-14 07:00N 33°45' W 118°16'0 0.0
2017-Oct-14 06:30N 33°45' W 118°16'0 0.0
2017-Oct-14 06:00N 33°45' W 118°16'0 0.0
2017-Oct-14 05:30N 33°45' W 118°16'0 0.0
2017-Oct-14 05:00N 33°45' W 118°16'0 0.0
2017-Oct-14 04:31N 33°45' W 118°16'0 0.0
2017-Oct-14 04:00N 33°45' W 118°16'0 0.0
2017-Oct-14 03:30N 33°45' W 118°16'0 0.0
2017-Oct-14 03:00N 33°45' W 118°16'0 0.0
2017-Oct-14 02:31N 33°45' W 118°16'0 0.7
2017-Oct-14 02:01N 33°45' W 118°17'713.3
2017-Oct-14 01:30N 33°38' W 118°15'918.6
2017-Oct-14 01:00N 33°29' W 118°17'917.1
2017-Oct-14 00:30N 33°21' W 118°19'0 0.0
2017-Oct-13 23:57N 33°21' W 118°19'817.0
2017-Oct-13 23:30N 33°28' W 118°18'1020.4
2017-Oct-13 23:01N 33°38' W 118°16'7 8.9
2017-Oct-13 22:16N 33°45' W 118°16'0 0.0
2017-Oct-13 21:58N 33°45' W 118°16'0 0.0
2017-Oct-13 21:26N 33°45' W 118°16'0 0.0
2017-Oct-13 20:54N 33°45' W 118°16'0 0.0
2017-Oct-13 20:16N 33°45' W 118°16'2 6.1
2017-Oct-13 20:00N 33°43' W 118°16'1020.0
2017-Oct-13 19:30N 33°35' W 118°22'1015.3
2017-Oct-13 18:50N 33°28' W 118°31'0 0.0
2017-Oct-13 18:24N 33°28' W 118°31'1113.7
2017-Oct-13 17:34N 33°35' W 118°21'326.1
2017-Oct-13 17:26N 33°38' W 118°19'715.4
2017-Oct-13 17:00N 33°45' W 118°17'0 0.4
2017-Oct-13 16:25N 33°45' W 118°16'0 0.3
2017-Oct-13 16:01N 33°45' W 118°16'0 0.0
2017-Oct-13 15:23N 33°45' W 118°16'0 0.0
2017-Oct-13 15:00N 33°45' W 118°16'0 0.0
2017-Oct-13 14:30N 33°45' W 118°16'0 0.0
2017-Oct-13 14:01N 33°45' W 118°16'2 0.1
2017-Oct-12 20:04N 33°43' W 118°16'120.2
2017-Oct-12 20:00N 33°43' W 118°15'1925.9
2017-Oct-12 19:17N 33°29' W 118°30'1512.8
2017-Oct-12 18:07N 33°39' W 118°18'325.4
2017-Oct-12 18:01N 33°41' W 118°16'4 7.2
2017-Oct-12 17:29N 33°45' W 118°16'0 0.0
2017-Oct-12 17:00N 33°45' W 118°16'0 0.0
2017-Oct-12 16:26N 33°45' W 118°16'0 0.1
2017-Oct-12 15:58N 33°45' W 118°16'0 0.1
2017-Oct-12 15:30N 33°45' W 118°16'0 0.0
2017-Oct-12 03:01N 33°45' W 118°16'0 0.0
2017-Oct-12 02:56N 33°45' W 118°16'0 0.2
2017-Oct-12 02:30N 33°45' W 118°16'0 0.0
2017-Oct-12 01:59N 33°45' W 118°16'1 3.0
2017-Oct-12 01:31N 33°43' W 118°16'1122.6
2017-Oct-12 01:01N 33°32' W 118°17'1222.1
2017-Oct-12 00:29N 33°21' W 118°19'0 0.0
2017-Oct-11 23:55N 33°21' W 118°19'717.0
2017-Oct-11 23:31N 33°26' W 118°25'4 8.0
2017-Oct-11 23:00N 33°27' W 118°30'1224.3
2017-Oct-11 22:30N 33°36' W 118°20'917.4
2017-Oct-11 21:59N 33°44' W 118°17'1 1.1
2017-Oct-11 21:30N 33°45' W 118°16'0 0.0
2017-Oct-11 20:57N 33°45' W 118°16'0 0.1
2017-Oct-11 20:30N 33°45' W 118°16'0 0.1
2017-Oct-11 20:00N 33°45' W 118°16'0 0.0
2017-Oct-11 19:28N 33°45' W 118°16'611.8
2017-Oct-11 19:00N 33°39' W 118°17'1325.7
2017-Oct-11 18:30N 33°30' W 118°27'3 3.9
2017-Oct-11 17:42N 33°27' W 118°29'526.1
2017-Oct-11 17:30N 33°25' W 118°24'611.1
2017-Oct-11 17:00N 33°21' W 118°19'0 0.0
2017-Oct-11 00:00N 33°21' W 118°19'815.2
2017-Oct-10 23:31N 33°26' W 118°26'3 5.8
2017-Oct-10 22:58N 33°27' W 118°29'1225.9
2017-Oct-10 22:31N 33°36' W 118°20'917.6
2017-Oct-10 22:00N 33°44' W 118°17'1 1.2
2017-Oct-10 21:30N 33°45' W 118°16'0 0.0
2017-Oct-10 21:00N 33°45' W 118°16'0 0.0
2017-Oct-10 20:30N 33°45' W 118°16'0 0.0
2017-Oct-10 20:00N 33°45' W 118°16'0 0.0
2017-Oct-10 19:30N 33°45' W 118°16'611.4
2017-Oct-10 19:01N 33°39' W 118°17'1325.8
2017-Oct-10 18:31N 33°30' W 118°27'4 4.7
2017-Oct-10 17:45N 33°27' W 118°29'623.3
2017-Oct-10 17:31N 33°25' W 118°23'510.7
2017-Oct-10 17:00N 33°21' W 118°19'1123.0
2017-Oct-10 16:31N 33°32' W 118°17'1123.0
2017-Oct-10 16:00N 33°43' W 118°16'1 2.8
2017-Oct-10 15:30N 33°45' W 118°16'0 0.0
2017-Oct-10 02:44N 33°45' W 118°16'0 0.5
2017-Oct-10 02:31N 33°45' W 118°16'0 0.0
2017-Oct-10 02:01N 33°45' W 118°16'2 3.5
2017-Oct-10 01:30N 33°43' W 118°16'1223.4
2017-Oct-10 01:00N 33°31' W 118°16'1122.5
2017-Oct-10 00:31N 33°21' W 118°19'0 0.0
2017-Oct-10 00:00N 33°21' W 118°19'919.1
2017-Oct-09 23:31N 33°27' W 118°28'1 2.8
2017-Oct-09 23:00N 33°27' W 118°30'1224.5
2017-Oct-09 22:31N 33°36' W 118°20'816.7
2017-Oct-09 22:00N 33°44' W 118°17'1 1.3
2017-Oct-09 21:30N 33°45' W 118°16'0 0.0
2017-Oct-09 21:00N 33°45' W 118°16'0 0.0
2017-Oct-09 20:30N 33°45' W 118°16'0 0.0
2017-Oct-09 20:00N 33°45' W 118°16'0 0.0
2017-Oct-09 19:30N 33°45' W 118°16'510.1
2017-Oct-09 19:01N 33°40' W 118°16'1612.7
2017-Oct-09 17:44N 33°27' W 118°29'725.8
2017-Oct-09 17:28N 33°24' W 118°22'4 7.2
2017-Oct-09 16:59N 33°21' W 118°19'1224.2
2017-Oct-09 16:28N 33°33' W 118°16'1121.6
2017-Oct-09 15:58N 33°44' W 118°16'1 0.1
2017-Oct-08 19:21N 33°45' W 118°16'0 0.1
2017-Oct-08 19:00N 33°45' W 118°16'0 0.0
2017-Oct-08 18:30N 33°45' W 118°16'0 0.0
2017-Oct-08 18:00N 33°45' W 118°16'0 0.0
2017-Oct-08 17:30N 33°45' W 118°16'0 0.0
2017-Oct-08 17:00N 33°45' W 118°16'0 0.1
2017-Oct-08 16:30N 33°45' W 118°16'0 0.1
2017-Oct-08 16:00N 33°45' W 118°16'0 0.0
2017-Oct-08 15:30N 33°45' W 118°16'0 0.0
2017-Oct-08 15:00N 33°45' W 118°16'0 0.0
2017-Oct-08 14:30N 33°45' W 118°16'0 0.0
2017-Oct-08 14:00N 33°45' W 118°16'0 0.1
2017-Oct-08 13:30N 33°45' W 118°16'0 0.0
2017-Oct-07 20:21N 33°45' W 118°16'0 0.2
2017-Oct-07 20:00N 33°45' W 118°16'  
Track history (hours):
 
Tides and Currents Weather Stations Pressure Air Temp Water Temp Dewpoint Dewpoint Depression Visibility Wind Speed Wind Dir Waves Ship Positions

Avalon Express

Owner: RGWT INC, San Pedro, CA. More information available from US FCC via Universal Licensing System and Coast Guard Vessel Documentation Center.

Last reported at 2017-Oct-17 19:30 UTC. Time now 2017-Oct-18 11:46 UTC.
Position N 33°45' W 118°16'.

Type: High speed craft. MMSI: 367192940.

Date/timePositionNaut miles runAvg speedWind from/ knotsBaromVisibWave heightAir tempDewpointWater temp
2017-Oct-17 19:30N 33°45' W 118°16'5 9.8
2017-Oct-17 19:00N 33°40' W 118°17'1611.1
2017-Oct-17 17:35N 33°26' W 118°25'226.5
2017-Oct-17 17:30N 33°25' W 118°23'510.1
2017-Oct-17 17:00N 33°21' W 118°19'1021.2
2017-Oct-17 16:31N 33°31' W 118°17'1224.5
2017-Oct-17 16:00N 33°43' W 118°16'0 0.0
2017-Oct-17 01:31N 33°44' W 118°16'0 6.9
2017-Oct-17 01:30N 33°44' W 118°16'1222.9
2017-Oct-17 01:00N 33°32' W 118°17'9 6.9
2017-Oct-16 23:42N 33°24' W 118°21'525.0
2017-Oct-16 23:30N 33°26' W 118°26'3 5.4
2017-Oct-16 22:58N 33°27' W 118°29'1226.2
2017-Oct-16 22:30N 33°36' W 118°20'916.9
2017-Oct-16 21:59N 33°44' W 118°17'0 1.0
2017-Oct-16 21:29N 33°45' W 118°16'0 0.0
2017-Oct-16 21:00N 33°45' W 118°16'0 0.0
2017-Oct-16 20:30N 33°45' W 118°16'0 0.0
2017-Oct-16 20:00N 33°45' W 118°16'0 0.2
2017-Oct-16 19:30N 33°45' W 118°16'612.3
2017-Oct-16 19:00N 33°39' W 118°18'1326.3
2017-Oct-16 18:31N 33°30' W 118°29'2 4.4
2017-Oct-16 18:00N 33°28' W 118°31'1326.2
2017-Oct-16 17:30N 33°38' W 118°20'714.0
2017-Oct-16 17:00N 33°44' W 118°17'1 1.6
2017-Oct-16 16:29N 33°45' W 118°16'0 0.0
2017-Oct-16 15:59N 33°45' W 118°16'0 0.0
2017-Oct-16 15:29N 33°45' W 118°16'0 0.0
2017-Oct-16 03:19N 33°45' W 118°16'0 0.0
2017-Oct-16 03:00N 33°45' W 118°16'0 0.0
2017-Oct-16 02:27N 33°45' W 118°16'0 0.0
2017-Oct-16 01:54N 33°45' W 118°16'2 4.0
2017-Oct-16 01:30N 33°43' W 118°16'1223.9
2017-Oct-16 00:59N 33°31' W 118°17'9 6.1
2017-Oct-15 23:32N 33°22' W 118°19'126.5
2017-Oct-15 23:30N 33°23' W 118°19'1427.0
2017-Oct-15 23:00N 33°36' W 118°16'916.6
2017-Oct-15 22:29N 33°45' W 118°16'0 0.1
2017-Oct-15 21:59N 33°45' W 118°16'0 0.0
2017-Oct-15 21:30N 33°45' W 118°16'0 0.0
2017-Oct-15 20:59N 33°45' W 118°16'2 3.8
2017-Oct-15 20:30N 33°43' W 118°16'2013.9
2017-Oct-15 19:02N 33°23' W 118°20'122.9
2017-Oct-15 19:00N 33°24' W 118°21'1011.7
2017-Oct-15 18:11N 33°28' W 118°31'1 3.6
2017-Oct-15 18:00N 33°28' W 118°31'1326.0
2017-Oct-15 17:31N 33°37' W 118°20'815.1
2017-Oct-15 17:00N 33°45' W 118°17'0 0.7
2017-Oct-15 16:29N 33°45' W 118°16'0 0.0
2017-Oct-15 15:56N 33°45' W 118°16'0 0.0
2017-Oct-15 15:16N 33°45' W 118°16'0 0.0
2017-Oct-15 14:52N 33°45' W 118°16'0 0.0
2017-Oct-15 13:57N 33°45' W 118°16'0 0.0
2017-Oct-15 13:30N 33°45' W 118°16'0 0.0
2017-Oct-15 13:00N 33°45' W 118°16'0 0.0
2017-Oct-15 03:07N 33°45' W 118°16'0 0.0
2017-Oct-15 03:00N 33°45' W 118°16'0 0.0
2017-Oct-15 02:30N 33°45' W 118°16'0 0.0
2017-Oct-15 02:00N 33°45' W 118°16'1 3.0
2017-Oct-15 01:30N 33°43' W 118°16'1223.3
2017-Oct-15 01:01N 33°32' W 118°17'1122.8
2017-Oct-15 00:30N 33°21' W 118°19'0 0.0
2017-Oct-15 00:00N 33°21' W 118°19'3 6.4
2017-Oct-14 23:30N 33°24' W 118°18'1326.9
2017-Oct-14 23:00N 33°37' W 118°16'815.8
2017-Oct-14 22:30N 33°45' W 118°16'0 0.0
2017-Oct-14 22:00N 33°45' W 118°16'0 0.0
2017-Oct-14 21:30N 33°45' W 118°16'0 0.0
2017-Oct-14 21:00N 33°45' W 118°16'2 4.1
2017-Oct-14 20:31N 33°43' W 118°16'1325.7
2017-Oct-14 20:00N 33°30' W 118°17'1019.3
2017-Oct-14 19:30N 33°21' W 118°19'0 0.0
2017-Oct-14 19:00N 33°21' W 118°19'1021.1
2017-Oct-14 18:31N 33°31' W 118°17'1223.7
2017-Oct-14 17:59N 33°43' W 118°16'2 3.3
2017-Oct-14 17:30N 33°45' W 118°16'0 0.0
2017-Oct-14 17:00N 33°45' W 118°16'0 0.2
2017-Oct-14 16:30N 33°45' W 118°16'0 0.1
2017-Oct-14 16:00N 33°45' W 118°16'0 0.1
2017-Oct-14 15:30N 33°45' W 118°16'0 0.0
2017-Oct-14 15:00N 33°45' W 118°16'0 0.0
2017-Oct-14 14:30N 33°45' W 118°16'0 0.0
2017-Oct-14 14:00N 33°45' W 118°16'0 0.0
2017-Oct-14 13:28N 33°45' W 118°16'0 0.0
2017-Oct-14 07:27N 33°45' W 118°16'0 0.2
2017-Oct-14 07:00N 33°45' W 118°16'0 0.0
2017-Oct-14 06:30N 33°45' W 118°16'0 0.0
2017-Oct-14 06:00N 33°45' W 118°16'0 0.0
2017-Oct-14 05:30N 33°45' W 118°16'0 0.0
2017-Oct-14 05:00N 33°45' W 118°16'0 0.0
2017-Oct-14 04:31N 33°45' W 118°16'0 0.0
2017-Oct-14 04:00N 33°45' W 118°16'0 0.0
2017-Oct-14 03:30N 33°45' W 118°16'0 0.0
2017-Oct-14 03:00N 33°45' W 118°16'0 0.0
2017-Oct-14 02:31N 33°45' W 118°16'0 0.7
2017-Oct-14 02:01N 33°45' W 118°17'713.3
2017-Oct-14 01:30N 33°38' W 118°15'918.6
2017-Oct-14 01:00N 33°29' W 118°17'917.1
2017-Oct-14 00:30N 33°21' W 118°19'0 0.0
2017-Oct-13 23:57N 33°21' W 118°19'817.0
2017-Oct-13 23:30N 33°28' W 118°18'1020.4
2017-Oct-13 23:01N 33°38' W 118°16'7 8.9
2017-Oct-13 22:16N 33°45' W 118°16'0 0.0
2017-Oct-13 21:58N 33°45' W 118°16'0 0.0
2017-Oct-13 21:26N 33°45' W 118°16'0 0.0
2017-Oct-13 20:54N 33°45' W 118°16'0 0.0
2017-Oct-13 20:16N 33°45' W 118°16'2 6.1
2017-Oct-13 20:00N 33°43' W 118°16'1020.0
2017-Oct-13 19:30N 33°35' W 118°22'1015.3
2017-Oct-13 18:50N 33°28' W 118°31'0 0.0
2017-Oct-13 18:24N 33°28' W 118°31'1113.7
2017-Oct-13 17:34N 33°35' W 118°21'326.1
2017-Oct-13 17:26N 33°38' W 118°19'715.4
2017-Oct-13 17:00N 33°45' W 118°17'0 0.4
2017-Oct-13 16:25N 33°45' W 118°16'0 0.3
2017-Oct-13 16:01N 33°45' W 118°16'0 0.0
2017-Oct-13 15:23N 33°45' W 118°16'0 0.0
2017-Oct-13 15:00N 33°45' W 118°16'0 0.0
2017-Oct-13 14:30N 33°45' W 118°16'0 0.0
2017-Oct-13 14:01N 33°45' W 118°16'2 0.1
2017-Oct-12 20:04N 33°43' W 118°16'120.2
2017-Oct-12 20:00N 33°43' W 118°15'1925.9
2017-Oct-12 19:17N 33°29' W 118°30'1512.8
2017-Oct-12 18:07N 33°39' W 118°18'325.4
2017-Oct-12 18:01N 33°41' W 118°16'4 7.2
2017-Oct-12 17:29N 33°45' W 118°16'0 0.0
2017-Oct-12 17:00N 33°45' W 118°16'0 0.0
2017-Oct-12 16:26N 33°45' W 118°16'0 0.1
2017-Oct-12 15:58N 33°45' W 118°16'0 0.1
2017-Oct-12 15:30N 33°45' W 118°16'0 0.0
2017-Oct-12 03:01N 33°45' W 118°16'0 0.0
2017-Oct-12 02:56N 33°45' W 118°16'0 0.2
2017-Oct-12 02:30N 33°45' W 118°16'0 0.0
2017-Oct-12 01:59N 33°45' W 118°16'1 3.0
2017-Oct-12 01:31N 33°43' W 118°16'1122.6
2017-Oct-12 01:01N 33°32' W 118°17'1222.1
2017-Oct-12 00:29N 33°21' W 118°19'0 0.0
2017-Oct-11 23:55N 33°21' W 118°19'717.0
2017-Oct-11 23:31N 33°26' W 118°25'4 8.0
2017-Oct-11 23:00N 33°27' W 118°30'1224.3
2017-Oct-11 22:30N 33°36' W 118°20'917.4
2017-Oct-11 21:59N 33°44' W 118°17'1 1.1
2017-Oct-11 21:30N 33°45' W 118°16'0 0.0
2017-Oct-11 20:57N 33°45' W 118°16'0 0.1
2017-Oct-11 20:30N 33°45' W 118°16'0 0.1
2017-Oct-11 20:00N 33°45' W 118°16'0 0.0
2017-Oct-11 19:28N 33°45' W 118°16'611.8
2017-Oct-11 19:00N 33°39' W 118°17'1325.7
2017-Oct-11 18:30N 33°30' W 118°27'3 3.9
2017-Oct-11 17:42N 33°27' W 118°29'526.1
2017-Oct-11 17:30N 33°25' W 118°24'611.1
2017-Oct-11 17:00N 33°21' W 118°19'0 0.0
2017-Oct-11 00:00N 33°21' W 118°19'815.2
2017-Oct-10 23:31N 33°26' W 118°26'3 5.8
2017-Oct-10 22:58N 33°27' W 118°29'1225.9
2017-Oct-10 22:31N 33°36' W 118°20'917.6
2017-Oct-10 22:00N 33°44' W 118°17'1 1.2
2017-Oct-10 21:30N 33°45' W 118°16'0 0.0
2017-Oct-10 21:00N 33°45' W 118°16'0 0.0
2017-Oct-10 20:30N 33°45' W 118°16'0 0.0
2017-Oct-10 20:00N 33°45' W 118°16'0 0.0
2017-Oct-10 19:30N 33°45' W 118°16'611.4
2017-Oct-10 19:01N 33°39' W 118°17'1325.8
2017-Oct-10 18:31N 33°30' W 118°27'4 4.7
2017-Oct-10 17:45N 33°27' W 118°29'623.3
2017-Oct-10 17:31N 33°25' W 118°23'510.7
2017-Oct-10 17:00N 33°21' W 118°19'1123.0
2017-Oct-10 16:31N 33°32' W 118°17'1123.0
2017-Oct-10 16:00N 33°43' W 118°16'1 2.8
2017-Oct-10 15:30N 33°45' W 118°16'0 0.0
2017-Oct-10 02:44N 33°45' W 118°16'0 0.5
2017-Oct-10 02:31N 33°45' W 118°16'0 0.0
2017-Oct-10 02:01N 33°45' W 118°16'2 3.5
2017-Oct-10 01:30N 33°43' W 118°16'1223.4
2017-Oct-10 01:00N 33°31' W 118°16'1122.5
2017-Oct-10 00:31N 33°21' W 118°19'0 0.0
2017-Oct-10 00:00N 33°21' W 118°19'919.1
2017-Oct-09 23:31N 33°27' W 118°28'1 2.8
2017-Oct-09 23:00N 33°27' W 118°30'1224.5
2017-Oct-09 22:31N 33°36' W 118°20'816.7
2017-Oct-09 22:00N 33°44' W 118°17'1 1.3
2017-Oct-09 21:30N 33°45' W 118°16'0 0.0
2017-Oct-09 21:00N 33°45' W 118°16'0 0.0
2017-Oct-09 20:30N 33°45' W 118°16'0 0.0
2017-Oct-09 20:00N 33°45' W 118°16'0 0.0
2017-Oct-09 19:30N 33°45' W 118°16'510.1
2017-Oct-09 19:01N 33°40' W 118°16'1612.7
2017-Oct-09 17:44N 33°27' W 118°29'725.8
2017-Oct-09 17:28N 33°24' W 118°22'4 7.2
2017-Oct-09 16:59N 33°21' W 118°19'1224.2
2017-Oct-09 16:28N 33°33' W 118°16'1121.6
2017-Oct-09 15:58N 33°44' W 118°16'1 0.1
2017-Oct-08 19:21N 33°45' W 118°16'0 0.1
2017-Oct-08 19:00N 33°45' W 118°16'0 0.0
2017-Oct-08 18:30N 33°45' W 118°16'0 0.0
2017-Oct-08 18:00N 33°45' W 118°16'0 0.0
2017-Oct-08 17:30N 33°45' W 118°16'0 0.0
2017-Oct-08 17:00N 33°45' W 118°16'0 0.1
2017-Oct-08 16:30N 33°45' W 118°16'0 0.1
2017-Oct-08 16:00N 33°45' W 118°16'0 0.0
2017-Oct-08 15:30N 33°45' W 118°16'0 0.0
2017-Oct-08 15:00N 33°45' W 118°16'0 0.0
2017-Oct-08 14:30N 33°45' W 118°16'0 0.0
2017-Oct-08 14:00N 33°45' W 118°16'0 0.1
2017-Oct-08 13:30N 33°45' W 118°16'0 0.0
2017-Oct-07 20:21N 33°45' W 118°16'0 0.2
2017-Oct-07 20:00N 33°45' W 118°16'  

Dump ship's entire track history